createdAt,value
2018-10-17T00:01:10.663Z,25.92
2018-10-17T00:03:39.140Z,25.23
2018-10-17T00:06:07.607Z,24.67
2018-10-17T00:08:36.392Z,25.62
2018-10-17T00:11:05.187Z,25.20
2018-10-17T00:13:33.667Z,25.70
2018-10-17T00:16:02.132Z,25.70
2018-10-17T00:18:30.589Z,26.20
2018-10-17T00:20:59.044Z,26.17
2018-10-17T00:23:27.643Z,26.90
2018-10-17T00:25:56.679Z,26.35
2018-10-17T00:28:25.139Z,27.48
2018-10-17T00:30:54.018Z,26.25
2018-10-17T00:33:23.099Z,27.32
2018-10-17T00:35:52.183Z,25.17
2018-10-17T00:38:21.835Z,26.60
2018-10-17T00:40:50.287Z,26.68
2018-10-17T00:43:19.119Z,26.52
2018-10-17T00:45:47.587Z,28.27
2018-10-17T00:48:16.239Z,27.27
2018-10-17T00:50:44.823Z,28.13
2018-10-17T00:53:13.860Z,28.00
2018-10-17T00:55:42.431Z,27.30
2018-10-17T00:58:11.123Z,27.37
2018-10-17T01:00:39.572Z,27.90
2018-10-17T01:03:08.240Z,27.00
2018-10-17T01:05:36.911Z,27.85
2018-10-17T01:08:05.496Z,28.38
2018-10-17T01:10:34.284Z,28.07
2018-10-17T01:13:02.994Z,28.75
2018-10-17T01:15:31.742Z,28.42
2018-10-17T01:18:00.351Z,28.05
2018-10-17T01:20:29.064Z,28.17
2018-10-17T01:22:58.304Z,28.17
2018-10-17T01:25:26.768Z,28.15
2018-10-17T01:27:55.239Z,27.60
2018-10-17T01:30:23.689Z,28.20
2018-10-17T01:32:52.732Z,27.85
2018-10-17T01:35:21.319Z,27.67
2018-10-17T01:37:49.888Z,28.73
2018-10-17T01:40:18.573Z,28.40
2018-10-17T01:42:47.331Z,28.62
2018-10-17T01:45:16.127Z,27.70
2018-10-17T01:47:44.703Z,27.93
2018-10-17T01:50:13.391Z,27.82
2018-10-17T01:52:41.843Z,29.90
2018-10-17T01:55:10.953Z,28.20
2018-10-17T01:57:39.819Z,28.73
2018-10-17T02:00:08.379Z,28.32
2018-10-17T02:02:36.955Z,29.00
2018-10-17T02:05:05.589Z,30.23
2018-10-17T02:07:34.121Z,29.10
2018-10-17T02:10:03.070Z,27.05
2018-10-17T02:12:31.667Z,28.40
2018-10-17T02:15:00.207Z,28.73
2018-10-17T02:17:28.771Z,28.80
2018-10-17T02:19:57.602Z,27.37
2018-10-17T02:22:26.463Z,29.45
2018-10-17T02:24:55.253Z,28.32
2018-10-17T02:27:23.810Z,29.63
2018-10-17T02:29:52.750Z,27.77
2018-10-17T02:32:21.470Z,29.30
2018-10-17T02:34:55.670Z,29.65
2018-10-17T02:37:24.122Z,29.37
2018-10-17T02:39:52.855Z,29.40
2018-10-17T02:42:21.699Z,28.42
2018-10-17T02:44:50.182Z,28.67
2018-10-17T02:47:18.714Z,27.95
2018-10-17T02:49:47.508Z,30.05
2018-10-17T02:52:15.974Z,29.27
2018-10-17T02:54:44.867Z,29.55
2018-10-17T02:57:13.359Z,27.98
2018-10-17T02:59:41.931Z,29.15
2018-10-17T03:03:13.296Z,28.40
2018-10-17T03:05:41.989Z,29.40
2018-10-17T03:08:10.555Z,29.37
2018-10-17T03:10:39.168Z,28.47
2018-10-17T03:13:07.718Z,29.37
2018-10-17T03:15:36.327Z,28.20
2018-10-17T03:18:05.103Z,30.00
2018-10-17T03:20:33.666Z,30.17
2018-10-17T03:23:02.653Z,27.75
2018-10-17T03:25:31.207Z,28.67
2018-10-17T03:27:59.781Z,29.42
2018-10-17T03:30:28.178Z,29.23
2018-10-17T03:32:57.330Z,29.02
2018-10-17T03:36:28.819Z,28.15
2018-10-17T03:38:57.311Z,28.67
2018-10-17T03:42:28.526Z,30.82
2018-10-17T03:44:57.685Z,29.52
2018-10-17T03:47:26.607Z,29.40
2018-10-17T03:49:55.129Z,29.30
2018-10-17T03:52:24.119Z,32.00
2018-10-17T03:54:52.859Z,29.72
2018-10-17T03:57:21.417Z,30.75
2018-10-17T03:59:50.143Z,30.90
2018-10-17T04:02:19.013Z,30.85
2018-10-17T04:04:47.927Z,31.27
2018-10-17T04:07:16.492Z,30.52
2018-10-17T04:09:45.001Z,30.23
2018-10-17T04:12:13.667Z,29.20
2018-10-17T04:14:42.407Z,28.95
2018-10-17T04:17:11.327Z,29.52
2018-10-17T04:19:39.885Z,29.40
2018-10-17T04:22:08.391Z,29.95
2018-10-17T04:24:37.202Z,29.60
2018-10-17T04:28:09.062Z,29.72
2018-10-17T04:30:37.669Z,30.00
2018-10-17T04:33:06.289Z,31.45
2018-10-17T04:35:35.018Z,29.98
2018-10-17T04:38:03.649Z,28.55
2018-10-17T04:40:32.230Z,29.07
2018-10-17T04:43:00.789Z,30.08
2018-10-17T04:45:29.789Z,29.67
2018-10-17T04:47:58.657Z,29.90
2018-10-17T04:50:27.341Z,29.20
2018-10-17T04:52:55.946Z,30.73
2018-10-17T04:55:24.857Z,30.55
2018-10-17T04:57:53.501Z,30.85
2018-10-17T05:00:21.985Z,30.10
2018-10-17T05:02:50.741Z,30.48
2018-10-17T05:05:19.998Z,29.05
2018-10-17T05:07:48.477Z,29.92
2018-10-17T05:10:17.166Z,30.10
2018-10-17T05:12:46.238Z,30.35
2018-10-17T05:15:14.944Z,30.90
2018-10-17T05:17:43.458Z,29.60
2018-10-17T05:20:13.969Z,30.12
2018-10-17T05:22:44.369Z,29.67
2018-10-17T05:25:13.974Z,30.90
2018-10-17T05:27:43.481Z,30.57
2018-10-17T05:30:13.577Z,30.37
2018-10-17T05:32:42.757Z,31.05
2018-10-17T05:35:12.863Z,30.97
2018-10-17T05:37:44.155Z,29.85
2018-10-17T05:40:18.069Z,29.60
2018-10-17T05:42:49.217Z,30.02
2018-10-17T05:45:19.030Z,29.85
2018-10-17T05:47:49.605Z,31.42
2018-10-17T05:50:18.822Z,30.03
2018-10-17T05:52:57.875Z,32.08
2018-10-17T05:55:31.389Z,30.70
2018-10-17T05:58:02.789Z,29.75
2018-10-17T06:00:35.029Z,30.80
2018-10-17T06:03:06.273Z,30.65
2018-10-17T06:05:37.445Z,31.65
2018-10-17T06:08:06.954Z,31.40
2018-10-17T06:10:37.861Z,31.80
2018-10-17T06:13:06.538Z,31.70
2018-10-17T06:15:35.005Z,34.80
2018-10-17T06:18:03.781Z,34.78
2018-10-17T06:20:32.273Z,37.78
2018-10-17T06:23:00.971Z,36.42
2018-10-17T06:25:29.809Z,40.38
2018-10-17T06:28:01.649Z,40.25
2018-10-17T06:31:33.077Z,42.38
2018-10-17T06:34:01.652Z,40.95
2018-10-17T06:36:30.436Z,41.55
2018-10-17T06:38:58.990Z,41.02
2018-10-17T06:41:27.537Z,40.23
2018-10-17T06:43:56.057Z,37.55
2018-10-17T06:46:24.641Z,35.50
2018-10-17T06:48:53.393Z,33.10
2018-10-17T06:52:24.860Z,32.73
2018-10-17T06:54:53.701Z,30.50
2018-10-17T06:57:22.181Z,30.55
2018-10-17T06:59:50.993Z,28.57
2018-10-17T07:02:20.219Z,30.27
2018-10-17T07:04:48.793Z,29.87
2018-10-17T07:07:17.452Z,29.00
2018-10-17T07:09:46.025Z,30.50
2018-10-17T07:12:14.521Z,31.40
2018-10-17T07:14:43.013Z,30.92
2018-10-17T07:17:11.572Z,30.08
2018-10-17T07:19:40.045Z,30.20
2018-10-17T07:22:08.553Z,29.77
2018-10-17T07:24:37.089Z,28.90
2018-10-17T07:27:05.697Z,27.45
2018-10-17T07:29:34.463Z,29.12
2018-10-17T07:32:05.127Z,28.27
2018-10-17T07:34:33.636Z,29.65
2018-10-17T07:37:02.800Z,28.42
2018-10-17T07:39:31.304Z,28.62
2018-10-17T07:42:00.128Z,28.30
2018-10-17T07:44:28.656Z,29.25
2018-10-17T07:46:57.176Z,28.00
2018-10-17T07:49:25.729Z,27.22
2018-10-17T07:51:54.696Z,29.52
2018-10-17T07:54:23.357Z,29.53
2018-10-17T07:56:51.981Z,28.60
2018-10-17T07:59:20.901Z,28.87
2018-10-17T08:01:49.392Z,27.67
2018-10-17T08:04:17.865Z,28.15
2018-10-17T08:06:46.912Z,29.27
2018-10-17T08:09:15.445Z,28.77
2018-10-17T08:11:44.289Z,28.50
2018-10-17T08:14:12.849Z,27.90
2018-10-17T08:16:41.384Z,27.15
2018-10-17T08:19:09.985Z,29.70
2018-10-17T08:21:38.778Z,27.25
2018-10-17T08:24:07.282Z,28.90
2018-10-17T08:26:36.420Z,28.90
2018-10-17T08:29:04.947Z,28.23
2018-10-17T08:31:33.676Z,27.95
2018-10-17T08:34:02.157Z,28.07
2018-10-17T08:36:30.801Z,27.25
2018-10-17T08:38:59.148Z,26.30
2018-10-17T08:41:27.624Z,27.37
2018-10-17T08:43:56.130Z,28.25
2018-10-17T08:46:24.652Z,26.90
2018-10-17T08:48:53.120Z,26.97
2018-10-17T08:52:24.623Z,27.97
2018-10-17T08:54:53.216Z,26.87
2018-10-17T08:57:21.679Z,26.62
2018-10-17T08:59:50.421Z,29.60
2018-10-17T09:02:18.912Z,26.02
2018-10-17T09:04:47.393Z,27.95
2018-10-17T09:07:15.880Z,27.60
2018-10-17T09:09:44.352Z,28.15
2018-10-17T09:12:13.152Z,27.87
2018-10-17T09:14:41.744Z,27.13
2018-10-17T09:17:10.327Z,27.77
2018-10-17T09:19:39.623Z,27.95
2018-10-17T09:22:08.242Z,29.75
2018-10-17T09:24:36.456Z,28.95
2018-10-17T09:27:05.032Z,27.48
2018-10-17T09:29:33.544Z,28.20
2018-10-17T09:32:02.284Z,27.67
2018-10-17T09:34:31.480Z,28.42
2018-10-17T09:37:00.072Z,27.90
2018-10-17T09:39:28.820Z,29.02
2018-10-17T09:42:03.973Z,26.87
2018-10-17T09:44:33.105Z,29.27
2018-10-17T09:47:01.695Z,28.35
2018-10-17T09:49:30.185Z,27.60
2018-10-17T09:51:58.982Z,27.25
2018-10-17T09:54:27.428Z,25.23
2018-10-17T09:56:55.899Z,25.43
2018-10-17T09:59:24.403Z,25.62
2018-10-17T10:01:53.780Z,23.92
2018-10-17T10:04:23.076Z,22.50
2018-10-17T10:06:51.583Z,21.77
2018-10-17T10:09:20.191Z,22.65
2018-10-17T10:11:48.687Z,23.18
2018-10-17T10:14:17.271Z,22.75
2018-10-17T10:16:45.861Z,21.45
2018-10-17T10:19:14.338Z,23.42
2018-10-17T10:21:42.823Z,24.02
2018-10-17T10:24:11.366Z,23.62
2018-10-17T10:26:39.939Z,23.10
2018-10-17T10:29:08.416Z,23.55
2018-10-17T10:31:36.903Z,21.68
2018-10-17T10:34:05.948Z,21.95
2018-10-17T10:36:34.399Z,22.70
2018-10-17T10:39:03.751Z,23.45
2018-10-17T10:41:32.539Z,22.75
2018-10-17T10:44:01.071Z,23.12
2018-10-17T10:46:29.563Z,23.57
2018-10-17T10:48:58.062Z,24.32
2018-10-17T10:51:26.614Z,24.05
2018-10-17T10:53:55.114Z,22.93
2018-10-17T10:56:23.695Z,21.85
2018-10-17T10:58:52.660Z,22.70
2018-10-17T11:01:21.775Z,22.22
2018-10-17T11:03:50.235Z,24.27
2018-10-17T11:06:18.875Z,23.65
2018-10-17T11:08:47.703Z,22.35
2018-10-17T11:11:16.464Z,22.37
2018-10-17T11:13:45.066Z,21.60
2018-10-17T11:16:13.733Z,21.97
2018-10-17T11:18:42.489Z,21.80
2018-10-17T11:21:11.385Z,21.75
2018-10-17T11:23:39.865Z,21.27
2018-10-17T11:26:08.313Z,21.97
2018-10-17T11:28:36.857Z,21.73
2018-10-17T11:31:05.600Z,19.05
2018-10-17T11:33:34.388Z,19.98
2018-10-17T11:36:02.909Z,20.35
2018-10-17T11:38:31.481Z,20.35
2018-10-17T11:41:00.490Z,20.02
2018-10-17T11:43:28.981Z,20.00
2018-10-17T11:45:57.501Z,20.35
2018-10-17T11:48:25.981Z,20.20
2018-10-17T11:50:54.700Z,19.45
2018-10-17T11:53:24.057Z,20.80
2018-10-17T11:56:07.205Z,18.95
2018-10-17T11:58:36.121Z,18.10
2018-10-17T12:01:05.821Z,19.02
2018-10-17T12:03:34.871Z,17.57
2018-10-17T12:06:03.369Z,17.35
2018-10-17T12:08:32.021Z,16.93
2018-10-17T12:11:01.117Z,15.80
2018-10-17T12:13:29.724Z,16.70
2018-10-17T12:15:59.621Z,16.80
2018-10-17T12:18:28.309Z,15.00
2018-10-17T12:20:57.010Z,15.87
2018-10-17T12:23:25.573Z,15.40
2018-10-17T12:25:54.193Z,16.42
2018-10-17T12:28:23.449Z,15.85
2018-10-17T12:30:52.036Z,16.05
2018-10-17T12:33:20.714Z,15.78
2018-10-17T12:35:49.540Z,16.30
2018-10-17T12:38:18.046Z,17.17
2018-10-17T12:40:46.814Z,16.93
2018-10-17T12:43:15.233Z,18.12
2018-10-17T12:45:43.859Z,15.50
2018-10-17T12:48:12.361Z,15.45
2018-10-17T12:50:40.831Z,15.90
2018-10-17T12:54:12.020Z,16.60
2018-10-17T12:56:40.493Z,15.98
2018-10-17T12:59:09.053Z,16.15
2018-10-17T13:01:37.518Z,15.98
2018-10-17T13:04:06.115Z,16.35
2018-10-17T13:06:34.576Z,16.27
2018-10-17T13:09:03.188Z,17.20
2018-10-17T13:11:32.393Z,16.90
2018-10-17T13:14:00.880Z,15.75
2018-10-17T13:16:29.648Z,15.93
2018-10-17T13:18:58.355Z,15.78
2018-10-17T13:21:27.124Z,16.62
2018-10-17T13:23:56.140Z,15.23
2018-10-17T13:26:24.800Z,15.50
2018-10-17T13:28:53.574Z,16.15
2018-10-17T13:31:22.148Z,15.32
2018-10-17T13:33:50.639Z,15.10
2018-10-17T13:36:19.108Z,15.85
2018-10-17T13:38:47.852Z,15.13
2018-10-17T13:41:16.395Z,15.00
2018-10-17T13:43:44.872Z,14.47
2018-10-17T13:46:13.333Z,15.17
2018-10-17T13:48:41.804Z,14.90
2018-10-17T13:51:11.456Z,14.93
2018-10-17T13:53:39.912Z,15.48
2018-10-17T13:56:08.809Z,14.83
2018-10-17T13:58:37.700Z,14.30
2018-10-17T14:01:07.451Z,15.75
2018-10-17T14:03:36.047Z,15.25
2018-10-17T14:06:04.938Z,15.70
2018-10-17T14:08:33.807Z,14.30
2018-10-17T14:11:02.772Z,15.95
2018-10-17T14:13:31.472Z,13.58
2018-10-17T14:15:59.970Z,15.03
2018-10-17T14:18:28.893Z,15.35
2018-10-17T14:20:57.739Z,15.20
2018-10-17T14:23:26.384Z,14.80
2018-10-17T14:25:55.103Z,15.10
2018-10-17T14:28:23.625Z,14.60
2018-10-17T14:30:52.158Z,13.80
2018-10-17T14:33:20.908Z,16.35
2018-10-17T14:35:49.469Z,15.32
2018-10-17T14:38:17.938Z,14.70
2018-10-17T14:40:46.426Z,15.18
2018-10-17T14:43:15.042Z,16.15
2018-10-17T14:45:43.617Z,15.32
2018-10-17T14:48:12.424Z,14.50
2018-10-17T14:50:40.903Z,15.68
2018-10-17T14:53:09.734Z,16.90
2018-10-17T14:55:38.429Z,17.60
2018-10-17T14:58:07.731Z,17.50
2018-10-17T15:00:36.443Z,18.32
2018-10-17T15:03:05.267Z,17.70
2018-10-17T15:05:33.999Z,18.40
2018-10-17T15:08:02.938Z,17.23
2018-10-17T15:10:31.761Z,17.92
2018-10-17T15:13:00.495Z,19.90
2018-10-17T15:15:29.019Z,20.55
2018-10-17T15:17:57.898Z,21.65
2018-10-17T15:20:26.466Z,22.55
2018-10-17T15:22:54.995Z,24.52
2018-10-17T15:25:23.551Z,22.48
2018-10-17T15:28:07.083Z,25.48
2018-10-17T15:30:36.091Z,22.98
2018-10-17T15:33:05.097Z,22.02
2018-10-17T15:35:33.879Z,22.05
2018-10-17T15:38:03.625Z,19.67
2018-10-17T15:40:32.439Z,19.77
2018-10-17T15:43:00.931Z,19.80
2018-10-17T15:45:29.539Z,19.02
2018-10-17T15:47:58.557Z,19.98
2018-10-17T15:50:28.203Z,19.42
2018-10-17T15:52:56.909Z,18.33
2018-10-17T15:55:25.674Z,20.02
2018-10-17T15:57:54.364Z,19.98
2018-10-17T16:00:22.963Z,19.10
2018-10-17T16:02:51.743Z,21.37
2018-10-17T16:05:20.261Z,20.12
2018-10-17T16:07:49.346Z,20.90
2018-10-17T16:10:18.602Z,20.02
2018-10-17T16:12:47.243Z,20.77
2018-10-17T16:15:16.027Z,21.00
2018-10-17T16:17:44.539Z,19.15
2018-10-17T16:20:13.473Z,19.27
2018-10-17T16:22:42.885Z,19.77
2018-10-17T16:25:11.651Z,19.87
2018-10-17T16:27:41.012Z,21.52
2018-10-17T16:30:11.060Z,19.57
2018-10-17T16:33:10.376Z,21.77
2018-10-17T16:35:39.491Z,19.80
2018-10-17T16:38:08.059Z,20.72
2018-10-17T16:40:36.699Z,20.65
2018-10-17T16:43:05.584Z,20.45
2018-10-17T16:45:34.154Z,21.07
2018-10-17T16:48:02.726Z,24.57
2018-10-17T16:50:31.384Z,27.32
2018-10-17T16:53:00.703Z,31.45
2018-10-17T16:55:29.621Z,27.67
2018-10-17T16:57:58.638Z,26.42
2018-10-17T17:00:27.645Z,23.07
2018-10-17T18:14:40.620Z,14.78
2018-10-17T18:17:09.639Z,15.23
2018-10-17T18:19:38.404Z,14.75
2018-10-17T18:22:07.739Z,14.87
2018-10-17T18:27:17.403Z,15.28
2018-10-17T18:32:39.744Z,16.27
2018-10-17T18:35:08.780Z,15.43
2018-10-17T18:37:39.181Z,16.05
2018-10-17T18:40:08.513Z,16.25
2018-10-17T18:42:37.344Z,16.17
2018-10-17T18:45:21.084Z,15.45
2018-10-17T18:47:52.454Z,14.45
2018-10-17T18:50:21.834Z,14.83
2018-10-17T18:52:50.862Z,14.38
2018-10-17T18:55:19.695Z,14.77
2018-10-17T18:57:48.564Z,14.90
2018-10-17T19:00:17.450Z,15.30
2018-10-17T19:02:46.342Z,15.78
2018-10-17T19:05:15.061Z,15.78
2018-10-17T19:07:43.854Z,15.05
2018-10-17T19:13:06.932Z,16.75
2018-10-17T19:15:36.170Z,16.25
2018-10-17T19:20:51.292Z,16.05
2018-10-17T19:23:20.130Z,16.52
2018-10-17T19:34:39.087Z,16.32
2018-10-17T19:37:12.586Z,17.35
2018-10-17T19:39:41.631Z,16.48
2018-10-17T19:42:10.427Z,16.75
2018-10-17T19:44:39.518Z,17.20
2018-10-17T19:47:08.430Z,17.65
2018-10-17T19:49:38.189Z,18.48
2018-10-17T19:52:07.346Z,17.40
2018-10-17T19:54:40.144Z,15.75
2018-10-17T19:57:08.976Z,16.75
2018-10-17T19:59:37.610Z,16.32
2018-10-17T20:02:07.167Z,16.82
2018-10-17T20:12:49.878Z,15.00
2018-10-17T20:15:18.831Z,15.13
2018-10-17T20:17:47.850Z,16.67
2018-10-17T20:20:16.610Z,15.72
2018-10-17T20:22:45.419Z,16.42
2018-10-17T20:25:14.391Z,16.97
2018-10-17T20:27:43.224Z,15.53
2018-10-17T20:41:44.583Z,15.00
2018-10-17T20:44:27.424Z,15.67
2018-10-17T20:46:56.295Z,17.62
2018-10-17T20:49:25.167Z,15.45
2018-10-17T20:51:53.863Z,14.87
2018-10-17T20:54:22.563Z,15.68
2018-10-17T20:56:51.283Z,14.60
2018-10-17T20:59:20.044Z,15.73
2018-10-17T21:01:48.739Z,15.35
2018-10-17T21:04:17.627Z,14.73
2018-10-17T21:14:55.083Z,15.75
2018-10-17T21:17:24.123Z,14.63
2018-10-17T21:19:52.958Z,14.85
2018-10-17T21:22:21.825Z,14.63
2018-10-17T21:24:50.535Z,14.87
2018-10-17T21:27:19.383Z,16.00
2018-10-17T21:29:48.187Z,15.28
2018-10-17T21:32:20.567Z,15.13
2018-10-17T21:34:49.411Z,15.43
2018-10-17T21:37:18.135Z,14.63
2018-10-17T21:39:46.911Z,14.73
2018-10-17T21:45:47.122Z,16.60
2018-10-17T21:48:15.842Z,15.72
2018-10-17T21:50:44.579Z,15.98
2018-10-17T21:53:13.619Z,15.05
2018-10-17T21:55:42.426Z,14.75
2018-10-17T21:58:11.178Z,14.15
2018-10-17T22:00:40.153Z,13.98
2018-10-17T22:03:09.035Z,14.60
2018-10-17T22:05:37.787Z,15.10
2018-10-17T22:08:06.685Z,14.13
2018-10-17T22:10:35.426Z,14.45
2018-10-17T22:13:05.384Z,14.53
2018-10-17T22:15:34.403Z,12.75
2018-10-17T22:18:03.205Z,13.38
2018-10-17T22:20:31.994Z,13.45
2018-10-17T22:23:00.758Z,13.90
2018-10-17T22:25:29.539Z,12.98
2018-10-17T22:27:58.614Z,15.18
2018-10-17T22:30:27.650Z,15.13
2018-10-17T22:32:56.511Z,15.28
2018-10-17T22:35:25.250Z,14.50
2018-10-17T22:37:54.492Z,14.40
2018-10-17T22:40:23.275Z,14.50
2018-10-17T22:42:52.262Z,13.67
2018-10-17T22:45:21.114Z,14.57
2018-10-17T22:47:49.890Z,14.60
2018-10-17T22:50:48.988Z,14.15
2018-10-17T22:53:17.722Z,13.88
2018-10-17T22:55:46.458Z,14.68
2018-10-17T22:58:15.478Z,13.83
2018-10-17T23:00:44.254Z,13.55
2018-10-17T23:03:12.998Z,13.15
2018-10-17T23:05:42.011Z,14.07
2018-10-17T23:08:10.844Z,13.57
2018-10-17T23:10:39.846Z,13.68
2018-10-17T23:13:08.558Z,12.73
2018-10-17T23:15:37.344Z,14.23
2018-10-17T23:18:06.159Z,14.15
2018-10-17T23:20:35.506Z,13.13
2018-10-17T23:23:05.275Z,13.25
2018-10-17T23:25:34.266Z,13.53
2018-10-17T23:28:03.015Z,14.78
2018-10-17T23:30:31.763Z,13.50
2018-10-17T23:33:00.519Z,14.45
2018-10-17T23:35:29.244Z,14.05
2018-10-17T23:37:58.029Z,14.75
2018-10-17T23:40:26.814Z,14.40
2018-10-17T23:42:56.161Z,14.03
2018-10-17T23:45:24.887Z,13.62
2018-10-17T23:47:53.712Z,13.58
2018-10-17T23:50:22.719Z,14.17
2018-10-17T23:52:51.762Z,14.47
2018-10-17T23:55:20.488Z,15.43
2018-10-17T23:57:49.222Z,14.13
